createdAt,value
2022-12-18T00:02:15.932Z,86.07
2022-12-18T00:04:48.693Z,85.87
2022-12-18T00:07:21.204Z,86.16
2022-12-18T00:09:53.792Z,85.89
2022-12-18T00:12:26.312Z,85.92
2022-12-18T00:14:58.917Z,86.27
2022-12-18T00:17:31.438Z,86.34
2022-12-18T00:20:04.525Z,86.27
2022-12-18T00:22:37.351Z,85.96
2022-12-18T00:25:09.892Z,85.69
2022-12-18T00:27:42.371Z,85.73
2022-12-18T00:30:15.616Z,85.82
2022-12-18T00:32:48.118Z,85.65
2022-12-18T00:35:21.256Z,85.62
2022-12-18T00:37:53.820Z,85.44
2022-12-18T00:40:26.339Z,85.75
2022-12-18T00:42:58.832Z,85.81
2022-12-18T00:45:32.550Z,85.87
2022-12-18T00:48:05.577Z,86.35
2022-12-18T00:50:38.096Z,85.61
2022-12-18T00:53:13.700Z,86.20
2022-12-18T00:55:46.907Z,86.17
2022-12-18T00:58:19.394Z,86.24
2022-12-18T01:00:51.945Z,86.27
2022-12-18T01:03:24.511Z,86.65
2022-12-18T01:05:57.157Z,86.26
2022-12-18T01:08:29.709Z,85.80
2022-12-18T01:11:12.819Z,86.49
2022-12-18T01:13:45.804Z,86.26
2022-12-18T01:16:18.804Z,86.72
2022-12-18T01:18:55.703Z,86.57
2022-12-18T01:21:28.939Z,87.04
2022-12-18T01:24:01.743Z,86.13
2022-12-18T01:26:34.259Z,86.12
2022-12-18T01:29:06.811Z,86.34
2022-12-18T01:31:39.615Z,86.02
2022-12-18T01:34:12.160Z,86.02
2022-12-18T01:36:44.664Z,86.29
2022-12-18T01:39:17.186Z,85.98
2022-12-18T01:42:02.646Z,86.26
2022-12-18T01:45:01.458Z,86.23
2022-12-18T01:48:00.332Z,86.81
2022-12-18T01:50:41.770Z,86.34
2022-12-18T01:53:19.900Z,86.73
2022-12-18T01:55:59.509Z,86.52
2022-12-18T01:58:41.519Z,86.30
2022-12-18T02:01:14.446Z,86.59
2022-12-18T02:03:47.026Z,86.72
2022-12-18T02:06:34.493Z,86.51
2022-12-18T02:09:19.599Z,85.83
2022-12-18T02:12:17.559Z,85.61
2022-12-18T02:15:17.539Z,86.13
2022-12-18T02:17:59.296Z,86.25
2022-12-18T02:20:48.959Z,86.02
2022-12-18T02:23:45.989Z,86.03
2022-12-18T02:26:42.487Z,85.38
2022-12-18T02:29:32.004Z,85.05
2022-12-18T02:32:13.663Z,85.94
2022-12-18T02:34:49.090Z,85.38
2022-12-18T02:37:24.618Z,85.26
2022-12-18T02:39:59.958Z,85.27
2022-12-18T02:42:33.680Z,85.04
2022-12-18T02:45:06.970Z,85.65
2022-12-18T02:47:46.872Z,85.62
2022-12-18T02:50:46.337Z,85.61
2022-12-18T02:53:37.842Z,85.60
2022-12-18T02:56:39.346Z,85.87
2022-12-18T02:59:24.372Z,85.53
2022-12-18T03:02:08.485Z,86.15
2022-12-18T03:04:51.745Z,85.88
2022-12-18T03:07:39.516Z,85.95
2022-12-18T03:10:20.537Z,86.30
2022-12-18T03:13:05.242Z,85.86
2022-12-18T03:15:44.952Z,86.02
2022-12-18T03:18:25.772Z,85.63
2022-12-18T03:21:05.772Z,85.95
2022-12-18T03:23:48.429Z,86.24
2022-12-18T03:26:27.762Z,85.41
2022-12-18T03:29:10.624Z,85.47
2022-12-18T03:31:50.222Z,84.84
2022-12-18T03:34:34.724Z,85.30
2022-12-18T03:37:08.463Z,84.88
2022-12-18T03:39:41.115Z,84.82
2022-12-18T03:42:57.930Z,84.82
2022-12-18T03:45:42.789Z,85.27
2022-12-18T03:48:42.754Z,84.62
2022-12-18T03:51:33.807Z,84.93
2022-12-18T03:54:10.731Z,84.88
2022-12-18T03:56:50.287Z,84.88
2022-12-18T03:59:25.919Z,85.11
2022-12-18T04:02:03.284Z,84.32
2022-12-18T04:04:41.131Z,84.38
2022-12-18T04:07:16.685Z,84.71
2022-12-18T04:09:54.371Z,85.06
2022-12-18T04:12:30.088Z,85.15
2022-12-18T04:15:02.740Z,85.11
2022-12-18T04:17:35.376Z,85.24
2022-12-18T04:20:08.624Z,84.55
2022-12-18T04:22:41.277Z,84.10
2022-12-18T04:25:14.368Z,83.92
2022-12-18T04:27:46.898Z,84.64
2022-12-18T04:30:19.440Z,83.76
2022-12-18T04:32:52.432Z,83.93
2022-12-18T04:35:25.119Z,83.95
2022-12-18T04:37:57.687Z,84.10
2022-12-18T04:40:30.304Z,83.69
2022-12-18T04:43:03.069Z,83.96
2022-12-18T04:45:35.960Z,84.28
2022-12-18T04:48:08.577Z,83.94
2022-12-18T04:50:41.040Z,84.20
2022-12-18T04:53:13.532Z,84.57
2022-12-18T04:55:46.031Z,84.06
2022-12-18T04:58:18.557Z,83.67
2022-12-18T05:00:51.055Z,83.74
2022-12-18T05:03:23.687Z,83.71
2022-12-18T05:05:56.404Z,84.00
2022-12-18T05:08:28.866Z,84.01
2022-12-18T05:11:08.926Z,84.04
2022-12-18T05:13:41.819Z,84.68
2022-12-18T05:16:15.777Z,84.56
2022-12-18T05:18:48.284Z,84.16
2022-12-18T05:21:20.924Z,84.63
2022-12-18T05:23:53.427Z,84.83
2022-12-18T05:26:26.171Z,85.41
2022-12-18T05:28:58.772Z,84.66
2022-12-18T05:31:35.983Z,84.71
2022-12-18T05:34:11.479Z,84.56
2022-12-18T05:36:44.205Z,84.52
2022-12-18T05:39:17.121Z,84.18
2022-12-18T05:41:49.688Z,84.01
2022-12-18T05:44:22.200Z,84.58
2022-12-18T05:46:55.033Z,84.37
2022-12-18T05:49:27.727Z,84.18
2022-12-18T05:52:00.456Z,84.13
2022-12-18T05:54:33.164Z,84.37
2022-12-18T05:57:06.123Z,84.56
2022-12-18T05:59:38.814Z,85.29
2022-12-18T06:02:11.387Z,84.68
2022-12-18T06:04:44.019Z,84.75
2022-12-18T06:07:16.555Z,84.26
2022-12-18T06:09:49.077Z,85.04
2022-12-18T06:12:22.106Z,84.75
2022-12-18T06:14:54.665Z,84.19
2022-12-18T06:17:32.294Z,84.69
2022-12-18T06:20:07.182Z,84.31
2022-12-18T06:22:39.726Z,84.15
2022-12-18T06:25:12.771Z,85.24
2022-12-18T06:27:47.699Z,84.35
2022-12-18T06:30:21.119Z,84.41
2022-12-18T06:32:56.715Z,84.34
2022-12-18T06:35:29.523Z,84.94
2022-12-18T06:38:03.845Z,85.00
2022-12-18T06:40:39.882Z,84.34
2022-12-18T06:43:12.422Z,84.82
2022-12-18T06:45:45.005Z,84.38
2022-12-18T06:48:17.562Z,84.28
2022-12-18T06:50:50.043Z,84.27
2022-12-18T06:53:22.935Z,84.92
2022-12-18T06:56:10.164Z,84.51
2022-12-18T06:58:43.224Z,84.70
2022-12-18T07:01:15.849Z,84.68
2022-12-18T07:03:52.426Z,84.44
2022-12-18T07:06:26.993Z,84.35
2022-12-18T07:08:59.627Z,85.30
2022-12-18T07:11:34.549Z,85.06
2022-12-18T07:14:07.055Z,85.35
2022-12-18T07:16:39.677Z,84.78
2022-12-18T07:19:12.302Z,85.07
2022-12-18T07:21:44.827Z,84.38
2022-12-18T07:24:17.469Z,84.62
2022-12-18T07:26:50.016Z,85.18
2022-12-18T07:29:22.567Z,85.27
2022-12-18T07:31:55.301Z,85.12
2022-12-18T07:34:28.155Z,84.61
2022-12-18T07:37:00.690Z,84.97
2022-12-18T07:39:33.253Z,84.55
2022-12-18T07:42:27.018Z,84.79
2022-12-18T07:45:01.345Z,84.78
2022-12-18T07:47:37.323Z,84.87
2022-12-18T07:50:10.059Z,84.40
2022-12-18T07:52:42.535Z,84.20
2022-12-18T07:55:15.167Z,84.19
2022-12-18T07:57:52.699Z,83.92
2022-12-18T08:00:27.901Z,83.71
2022-12-18T08:03:00.642Z,83.44
2022-12-18T08:05:33.287Z,83.68
2022-12-18T08:08:06.112Z,83.65
2022-12-18T08:10:40.066Z,83.68
2022-12-18T08:13:12.578Z,84.05
2022-12-18T08:15:45.133Z,83.39
2022-12-18T08:18:17.614Z,83.27
2022-12-18T08:20:50.142Z,83.01
2022-12-18T08:23:23.178Z,83.07
2022-12-18T08:25:55.766Z,82.62
2022-12-18T08:28:28.390Z,82.44
2022-12-18T08:31:01.589Z,82.79
2022-12-18T08:33:34.919Z,82.57
2022-12-18T08:36:08.928Z,82.27
2022-12-18T08:38:41.539Z,82.20
2022-12-18T08:41:17.898Z,81.42
2022-12-18T08:44:09.071Z,81.47
2022-12-18T08:46:44.586Z,81.66
2022-12-18T08:49:17.069Z,81.16
2022-12-18T08:51:49.619Z,80.92
2022-12-18T08:54:22.185Z,80.50
2022-12-18T08:56:54.717Z,80.57
2022-12-18T08:59:30.250Z,80.15
2022-12-18T09:02:03.001Z,79.78
2022-12-18T09:04:35.738Z,79.66
2022-12-18T09:07:08.364Z,79.66
2022-12-18T09:09:40.918Z,79.13
2022-12-18T09:12:13.465Z,78.55
2022-12-18T09:14:46.109Z,78.71
2022-12-18T09:17:18.680Z,78.95
2022-12-18T09:19:51.707Z,78.37
2022-12-18T09:22:24.264Z,79.05
2022-12-18T09:24:56.730Z,78.65
2022-12-18T09:27:29.336Z,78.62
2022-12-18T09:30:02.416Z,78.11
2022-12-18T09:32:34.898Z,78.54
2022-12-18T09:35:07.898Z,77.78
2022-12-18T09:37:40.521Z,77.18
2022-12-18T09:40:22.836Z,77.47
2022-12-18T09:43:03.487Z,77.28
2022-12-18T09:45:47.880Z,77.35
2022-12-18T09:48:57.617Z,77.23
2022-12-18T09:51:40.476Z,77.72
2022-12-18T09:54:21.619Z,76.40
2022-12-18T09:56:54.409Z,76.38
2022-12-18T09:59:37.426Z,77.10
2022-12-18T10:02:17.768Z,76.26
2022-12-18T10:05:33.456Z,76.31
2022-12-18T10:08:23.306Z,75.86
2022-12-18T10:11:22.689Z,75.79
2022-12-18T10:14:15.233Z,75.53
2022-12-18T10:17:21.755Z,75.23
2022-12-18T10:20:02.211Z,74.87
2022-12-18T10:23:09.015Z,75.01
2022-12-18T10:26:01.560Z,74.86
2022-12-18T10:28:41.416Z,75.09
2022-12-18T10:31:22.032Z,74.71
2022-12-18T10:33:57.273Z,74.03
2022-12-18T10:36:30.519Z,75.65
2022-12-18T10:39:25.997Z,74.03
2022-12-18T10:42:30.859Z,72.98
2022-12-18T10:45:12.616Z,73.31
2022-12-18T10:47:51.566Z,73.57
2022-12-18T10:51:09.907Z,73.27
2022-12-18T10:53:35.738Z,73.29
2022-12-18T10:56:08.332Z,73.04
2022-12-18T10:58:41.369Z,73.42
2022-12-18T11:01:18.480Z,73.16
2022-12-18T11:03:51.091Z,72.72
2022-12-18T11:06:26.336Z,73.18
2022-12-18T11:09:20.712Z,73.29
2022-12-18T11:11:57.843Z,72.63
2022-12-18T11:14:35.087Z,71.84
2022-12-18T11:17:26.206Z,72.20
2022-12-18T11:20:03.656Z,72.75
2022-12-18T11:22:39.144Z,72.36
2022-12-18T11:28:27.332Z,72.01
2022-12-18T11:31:23.007Z,71.18
2022-12-18T11:34:29.832Z,70.76
2022-12-18T11:37:05.252Z,71.96
2022-12-18T11:39:43.471Z,71.23
2022-12-18T11:42:46.452Z,71.14
2022-12-18T11:45:30.043Z,71.40
2022-12-18T11:48:28.692Z,71.15
2022-12-18T11:51:06.551Z,70.93
2022-12-18T11:53:41.037Z,69.94
2022-12-18T11:56:33.531Z,69.79
2022-12-18T11:59:26.580Z,70.58
2022-12-18T12:02:23.092Z,69.58
2022-12-18T12:05:32.835Z,69.91
2022-12-18T12:08:38.071Z,69.73
2022-12-18T12:11:31.812Z,69.34
2022-12-18T12:14:37.737Z,69.41
2022-12-18T12:17:26.461Z,70.06
2022-12-18T12:20:17.355Z,69.80
2022-12-18T12:23:04.057Z,69.24
2022-12-18T12:25:59.527Z,69.47
2022-12-18T12:29:10.667Z,69.27
2022-12-18T12:32:23.489Z,68.78
2022-12-18T12:35:26.820Z,69.37
2022-12-18T12:38:25.091Z,69.06
2022-12-18T12:41:07.425Z,69.68
2022-12-18T12:43:50.935Z,68.48
2022-12-18T12:46:27.297Z,69.41
2022-12-18T12:49:05.279Z,68.72
2022-12-18T12:51:43.084Z,69.20
2022-12-18T12:54:25.525Z,69.13
2022-12-18T12:57:13.592Z,68.91
2022-12-18T13:00:26.884Z,68.40
2022-12-18T13:03:22.027Z,69.38
2022-12-18T13:06:07.076Z,69.46
2022-12-18T13:09:02.055Z,68.46
2022-12-18T13:12:07.227Z,69.33
2022-12-18T13:14:42.088Z,68.79
2022-12-18T13:17:21.239Z,68.41
2022-12-18T13:20:15.414Z,68.64
2022-12-18T13:22:51.177Z,68.85
2022-12-18T13:25:53.614Z,68.59
2022-12-18T13:28:47.851Z,69.08
2022-12-18T13:31:41.698Z,69.34
2022-12-18T13:34:27.786Z,69.25
2022-12-18T13:37:43.043Z,68.99
2022-12-18T13:40:50.509Z,69.60
2022-12-18T13:43:22.965Z,68.94
2022-12-18T13:45:55.348Z,68.50
2022-12-18T13:48:32.700Z,68.81
2022-12-18T13:51:10.705Z,68.13
2022-12-18T13:53:50.744Z,68.67
2022-12-18T13:56:31.371Z,68.34
2022-12-18T13:59:09.660Z,68.87
2022-12-18T14:01:56.269Z,68.40
2022-12-18T14:04:36.087Z,68.54
2022-12-18T14:07:15.656Z,68.25
2022-12-18T14:10:41.969Z,68.21
2022-12-18T14:13:06.739Z,68.41
2022-12-18T14:15:44.453Z,68.72
2022-12-18T14:18:37.216Z,68.76
2022-12-18T14:21:25.828Z,68.69
2022-12-18T14:24:22.144Z,69.07
2022-12-18T14:26:54.799Z,69.74
2022-12-18T14:29:30.754Z,68.60
2022-12-18T14:32:21.328Z,68.68
2022-12-18T14:34:55.132Z,68.40
2022-12-18T14:37:28.421Z,68.10
2022-12-18T14:40:11.315Z,68.84
2022-12-18T14:42:44.043Z,68.76
2022-12-18T14:45:43.053Z,68.98
2022-12-18T14:48:40.463Z,69.37
2022-12-18T14:51:29.628Z,68.25
2022-12-18T14:54:10.735Z,69.31
2022-12-18T14:56:48.095Z,69.41
2022-12-18T14:59:25.047Z,69.33
2022-12-18T15:02:29.479Z,68.88
2022-12-18T15:05:29.466Z,69.19
2022-12-18T15:08:03.577Z,69.45
2022-12-18T15:10:47.443Z,69.52
2022-12-18T15:13:25.709Z,69.76
2022-12-18T15:16:04.157Z,70.30
2022-12-18T15:18:46.129Z,69.96
2022-12-18T15:21:21.442Z,70.19
2022-12-18T15:23:54.215Z,70.22
2022-12-18T15:26:26.767Z,70.21
2022-12-18T15:29:00.872Z,69.96
2022-12-18T15:31:38.696Z,69.90
2022-12-18T15:34:22.199Z,69.64
2022-12-18T15:36:54.893Z,70.63
2022-12-18T15:39:27.511Z,70.94
2022-12-18T15:42:21.227Z,70.70
2022-12-18T15:44:53.833Z,70.68
2022-12-18T15:47:26.352Z,69.89
2022-12-18T15:49:58.977Z,69.74
2022-12-18T15:52:47.191Z,70.32
2022-12-18T15:55:42.507Z,69.84
2022-12-18T15:58:15.125Z,70.18
2022-12-18T16:00:48.970Z,70.27
2022-12-18T16:03:21.552Z,69.88
2022-12-18T16:05:54.217Z,69.91
2022-12-18T16:08:26.872Z,69.52
2022-12-18T16:10:59.458Z,69.36
2022-12-18T16:13:32.073Z,70.54
2022-12-18T16:16:05.454Z,69.75
2022-12-18T16:18:38.043Z,70.03
2022-12-18T16:21:10.776Z,69.98
2022-12-18T16:23:43.609Z,70.45
2022-12-18T16:26:16.358Z,70.22
2022-12-18T16:28:48.798Z,70.06
2022-12-18T16:31:21.833Z,69.99
2022-12-18T16:34:26.898Z,70.35
2022-12-18T16:37:06.390Z,70.53
2022-12-18T16:39:41.011Z,70.39
2022-12-18T16:42:20.116Z,70.01
2022-12-18T16:44:53.287Z,70.26
2022-12-18T16:47:25.840Z,69.98
2022-12-18T16:49:58.404Z,70.56
2022-12-18T16:52:33.194Z,70.16
2022-12-18T16:55:06.190Z,70.37
2022-12-18T16:57:39.059Z,70.89
2022-12-18T17:00:12.633Z,70.34
2022-12-18T17:02:45.286Z,70.62
2022-12-18T17:05:17.932Z,69.91
2022-12-18T17:07:50.458Z,70.50
2022-12-18T17:10:22.967Z,70.04
2022-12-18T17:12:56.018Z,69.64
2022-12-18T17:15:28.478Z,70.15
2022-12-18T17:18:01.007Z,70.72
2022-12-18T17:20:33.525Z,70.62
2022-12-18T17:23:06.101Z,69.43
2022-12-18T17:25:41.399Z,70.14
2022-12-18T17:28:14.091Z,69.70
2022-12-18T17:30:46.595Z,70.09
2022-12-18T17:33:19.968Z,70.55
2022-12-18T17:35:52.848Z,69.89
2022-12-18T17:38:25.327Z,70.05
2022-12-18T17:41:06.921Z,70.45
2022-12-18T17:43:45.431Z,69.86
2022-12-18T17:46:18.775Z,70.04
2022-12-18T17:48:52.267Z,69.67
2022-12-18T17:51:25.398Z,70.66
2022-12-18T17:53:58.106Z,70.45
2022-12-18T17:56:30.892Z,69.79
2022-12-18T17:59:03.546Z,69.68
2022-12-18T18:01:41.137Z,69.73
2022-12-18T18:04:16.852Z,69.49
2022-12-18T18:06:49.460Z,69.97
2022-12-18T18:09:21.943Z,69.95
2022-12-18T18:12:13.146Z,69.47
2022-12-18T18:14:45.779Z,69.54
2022-12-18T18:17:18.306Z,69.47
2022-12-18T18:19:50.785Z,69.92
2022-12-18T18:22:23.314Z,70.00
2022-12-18T18:24:56.968Z,68.88
2022-12-18T18:27:38.270Z,69.34
2022-12-18T18:30:11.955Z,68.90
2022-12-18T18:32:44.477Z,69.15
2022-12-18T18:35:45.110Z,69.12
2022-12-18T18:38:09.983Z,68.98
2022-12-18T18:40:42.557Z,68.69
2022-12-18T18:43:15.169Z,69.66
2022-12-18T18:45:49.032Z,68.89
2022-12-18T18:48:21.550Z,68.79
2022-12-18T18:51:07.979Z,68.24
2022-12-18T18:53:44.631Z,69.13
2022-12-18T18:59:14.311Z,68.02
2022-12-18T19:01:48.335Z,68.64
2022-12-18T19:04:21.102Z,68.98
2022-12-18T19:06:53.785Z,67.85
2022-12-18T19:09:26.997Z,68.86
2022-12-18T19:12:19.815Z,69.01
2022-12-18T19:14:54.615Z,68.02
2022-12-18T19:17:31.492Z,68.65
2022-12-18T19:20:05.537Z,69.53
2022-12-18T19:22:38.226Z,69.97
2022-12-18T19:25:10.779Z,70.12
2022-12-18T19:27:43.482Z,71.75
2022-12-18T19:30:16.921Z,73.09
2022-12-18T19:32:49.459Z,72.94
2022-12-18T19:35:21.974Z,74.25
2022-12-18T19:37:54.960Z,75.31
2022-12-18T19:40:27.712Z,75.60
2022-12-18T19:43:00.867Z,76.16
2022-12-18T19:45:33.995Z,76.75
2022-12-18T19:48:07.931Z,77.52
2022-12-18T19:50:42.018Z,78.10
2022-12-18T19:53:14.602Z,78.04
2022-12-18T19:55:47.277Z,78.31
2022-12-18T19:58:21.830Z,79.13
2022-12-18T20:00:55.788Z,79.26
2022-12-18T20:03:32.344Z,79.28
2022-12-18T20:06:15.544Z,79.63
2022-12-18T20:08:48.068Z,79.51
2022-12-18T20:11:21.685Z,80.11
2022-12-18T20:13:54.316Z,80.90
2022-12-18T20:16:27.212Z,80.30
2022-12-18T20:18:59.875Z,80.39
2022-12-18T20:21:33.672Z,80.36
2022-12-18T20:24:09.002Z,81.25
2022-12-18T20:26:42.238Z,82.02
2022-12-18T20:29:15.509Z,80.78
2022-12-18T20:31:49.217Z,80.92
2022-12-18T20:34:24.473Z,81.72
2022-12-18T20:36:57.791Z,81.86
2022-12-18T20:39:31.043Z,81.78
2022-12-18T20:42:04.802Z,82.72
2022-12-18T20:44:38.517Z,82.33
2022-12-18T20:47:12.574Z,82.31
2022-12-18T20:49:45.840Z,82.27
2022-12-18T20:52:22.053Z,82.24
2022-12-18T20:54:57.542Z,82.81
2022-12-18T21:46:52.980Z,86.85
2022-12-18T21:51:32.585Z,85.86
2022-12-18T21:58:04.999Z,86.37
2022-12-18T22:07:53.089Z,86.58
2022-12-18T22:13:34.399Z,87.44
2022-12-18T22:16:25.637Z,86.86
2022-12-18T22:19:09.872Z,87.70
2022-12-18T22:21:50.805Z,87.22
2022-12-18T22:24:26.835Z,87.62
2022-12-18T22:27:07.752Z,87.11
2022-12-18T22:29:59.468Z,87.45
2022-12-18T22:32:36.446Z,87.41
2022-12-18T22:35:14.313Z,87.48
2022-12-18T22:37:53.284Z,87.50
2022-12-18T22:40:29.285Z,87.29
2022-12-18T22:43:06.655Z,87.51
2022-12-18T22:45:39.459Z,87.85
2022-12-18T22:48:24.864Z,88.05
2022-12-18T22:51:00.016Z,87.85
2022-12-18T22:53:32.856Z,87.95
2022-12-18T22:56:07.016Z,88.28
2022-12-18T22:58:39.798Z,87.84
2022-12-18T23:01:36.994Z,88.05
2022-12-18T23:04:20.703Z,87.46
2022-12-18T23:06:58.669Z,87.55
2022-12-18T23:09:37.568Z,87.72
2022-12-18T23:12:34.704Z,87.71
2022-12-18T23:15:21.551Z,87.74
2022-12-18T23:18:11.212Z,87.52
2022-12-18T23:21:09.914Z,87.64
2022-12-18T23:23:59.560Z,88.39
2022-12-18T23:26:37.819Z,88.12
2022-12-18T23:29:27.359Z,88.51
2022-12-18T23:32:03.934Z,88.75
2022-12-18T23:34:46.937Z,88.88
2022-12-18T23:37:57.661Z,89.42
2022-12-18T23:40:38.693Z,89.15
2022-12-18T23:43:25.104Z,89.34
2022-12-18T23:46:04.088Z,89.23
2022-12-18T23:48:47.888Z,89.94
2022-12-18T23:51:48.988Z,89.50
2022-12-18T23:54:33.812Z,90.68
2022-12-18T23:57:20.581Z,89.96
